Pays
Station

 

Conditions  météo  pour  Aeroporto Cachimbo (Novo Progresso/PA)  -  Brésil    Brésil

  
28 °C
    
 
 

METAR pour Aeroporto Cachimbo (Novo Progresso/PA) :

SBCC 172000Z 07006KT CAVOK 28/15 Q1015

 

Voici le bulletin pour Aeroporto Cachimbo (Novo Progresso/PA) - Brésil.
 
Le bulletin a été fait il y a 13 heures et 55 minutes, à 20:00 UTC .
Le vent soufflait à la vitesse de 3.1 mètres par seconde de Est/Nord-est (070°).
 
La température était de 28 °C, avec un point de rosée à 15 °C.
La température ressentie était de 28 °C.
 
La pression atmosphérique était de 1015 hPa.
L'humidité relative était de 45.1%.
 
Il y avait pas de nuages en-dessous de 1500 mètres et pas de cumulonimbus.
 
La visibilité globale était de supérieure à 10 kilomètres.
 

 
 
 

Pays :   A   B   C   D   E   F   G   H   I   J   K   L   M   N   O   P   Q   R   S   T   U   V   W   Y   Z

 

Partenaires :  Info Météo avec Met'info
Météo Marine avec MeteoMarine.net
Infos Site  |  Infos Légales  |  Crédits  |  Confidentialité
Contactez-nous  |  Ajouter aux favoris
© 2013-2019 METAR - Tous droits réservés